sensor_id;sensor_type;location;lat;lon;timestamp;P1;durP1;ratioP1;P2;durP2;ratioP2
36663;SDS011;53333;51.976;20.144;2024-02-23T00:01:56;9.43;;;6.72;;
36663;SDS011;53333;51.976;20.144;2024-02-23T00:04:31;12.57;;;7.15;;
36663;SDS011;53333;51.976;20.144;2024-02-23T00:07:04;11.20;;;7.10;;
36663;SDS011;53333;51.976;20.144;2024-02-23T00:09:37;11.40;;;7.20;;
36663;SDS011;53333;51.976;20.144;2024-02-23T00:12:10;10.48;;;7.07;;
36663;SDS011;53333;51.976;20.144;2024-02-23T00:14:46;10.27;;;7.25;;
36663;SDS011;53333;51.976;20.144;2024-02-23T00:17:19;14.00;;;7.15;;
36663;SDS011;53333;51.976;20.144;2024-02-23T00:19:53;11.85;;;6.95;;
36663;SDS011;53333;51.976;20.144;2024-02-23T00:22:26;8.57;;;6.88;;
36663;SDS011;53333;51.976;20.144;2024-02-23T00:24:59;12.00;;;7.10;;
36663;SDS011;53333;51.976;20.144;2024-02-23T00:27:32;11.97;;;7.53;;
36663;SDS011;53333;51.976;20.144;2024-02-23T00:30:07;11.80;;;7.15;;
36663;SDS011;53333;51.976;20.144;2024-02-23T00:32:40;9.15;;;6.40;;
36663;SDS011;53333;51.976;20.144;2024-02-23T00:35:13;10.35;;;6.82;;
36663;SDS011;53333;51.976;20.144;2024-02-23T00:40:20;10.30;;;6.93;;
36663;SDS011;53333;51.976;20.144;2024-02-23T00:42:54;13.35;;;7.22;;
36663;SDS011;53333;51.976;20.144;2024-02-23T00:45:29;9.27;;;6.40;;
36663;SDS011;53333;51.976;20.144;2024-02-23T00:48:02;12.52;;;7.75;;
36663;SDS011;53333;51.976;20.144;2024-02-23T00:50:37;12.68;;;7.82;;
36663;SDS011;53333;51.976;20.144;2024-02-23T00:53:12;10.35;;;7.22;;
36663;SDS011;53333;51.976;20.144;2024-02-23T00:55:45;10.82;;;7.05;;
36663;SDS011;53333;51.976;20.144;2024-02-23T00:58:18;15.40;;;7.00;;
36663;SDS011;53333;51.976;20.144;2024-02-23T01:00:52;12.52;;;6.97;;
36663;SDS011;53333;51.976;20.144;2024-02-23T01:03:25;9.52;;;6.60;;
36663;SDS011;53333;51.976;20.144;2024-02-23T01:05:58;11.77;;;7.00;;
36663;SDS011;53333;51.976;20.144;2024-02-23T01:08:31;10.17;;;6.17;;
36663;SDS011;53333;51.976;20.144;2024-02-23T01:11:04;9.17;;;6.50;;
36663;SDS011;53333;51.976;20.144;2024-02-23T01:13:37;11.25;;;7.68;;
36663;SDS011;53333;51.976;20.144;2024-02-23T01:16:12;9.70;;;6.22;;
36663;SDS011;53333;51.976;20.144;2024-02-23T01:18:44;13.52;;;6.15;;
36663;SDS011;53333;51.976;20.144;2024-02-23T01:21:22;11.65;;;6.40;;
36663;SDS011;53333;51.976;20.144;2024-02-23T01:24:01;8.98;;;6.03;;
36663;SDS011;53333;51.976;20.144;2024-02-23T01:26:35;10.90;;;6.70;;
36663;SDS011;53333;51.976;20.144;2024-02-23T01:29:13;9.77;;;6.32;;
36663;SDS011;53333;51.976;20.144;2024-02-23T01:31:49;12.48;;;7.05;;
36663;SDS011;53333;51.976;20.144;2024-02-23T01:34:23;10.70;;;6.63;;
36663;SDS011;53333;51.976;20.144;2024-02-23T01:36:58;11.23;;;6.47;;
36663;SDS011;53333;51.976;20.144;2024-02-23T01:39:31;10.05;;;6.47;;
36663;SDS011;53333;51.976;20.144;2024-02-23T01:42:04;11.07;;;7.00;;
36663;SDS011;53333;51.976;20.144;2024-02-23T01:44:37;8.87;;;7.13;;
36663;SDS011;53333;51.976;20.144;2024-02-23T01:47:12;10.40;;;5.87;;
36663;SDS011;53333;51.976;20.144;2024-02-23T01:49:45;9.35;;;6.53;;
36663;SDS011;53333;51.976;20.144;2024-02-23T01:52:20;9.63;;;6.45;;
36663;SDS011;53333;51.976;20.144;2024-02-23T01:54:56;9.75;;;6.70;;
36663;SDS011;53333;51.976;20.144;2024-02-23T01:57:31;10.48;;;6.30;;
36663;SDS011;53333;51.976;20.144;2024-02-23T02:00:20;8.82;;;6.10;;
36663;SDS011;53333;51.976;20.144;2024-02-23T02:02:58;9.63;;;6.50;;
36663;SDS011;53333;51.976;20.144;2024-02-23T02:05:31;10.52;;;6.47;;
36663;SDS011;53333;51.976;20.144;2024-02-23T02:08:04;12.05;;;7.03;;
36663;SDS011;53333;51.976;20.144;2024-02-23T02:10:38;11.82;;;6.43;;
36663;SDS011;53333;51.976;20.144;2024-02-23T02:13:11;9.05;;;6.25;;
36663;SDS011;53333;51.976;20.144;2024-02-23T02:15:44;10.90;;;6.38;;
36663;SDS011;53333;51.976;20.144;2024-02-23T02:18:19;9.93;;;6.43;;
36663;SDS011;53333;51.976;20.144;2024-02-23T02:20:53;10.18;;;5.97;;
36663;SDS011;53333;51.976;20.144;2024-02-23T02:23:29;9.73;;;6.07;;
36663;SDS011;53333;51.976;20.144;2024-02-23T02:26:03;8.40;;;6.50;;
36663;SDS011;53333;51.976;20.144;2024-02-23T02:28:36;8.48;;;6.00;;
36663;SDS011;53333;51.976;20.144;2024-02-23T02:31:09;8.70;;;6.23;;
36663;SDS011;53333;51.976;20.144;2024-02-23T02:33:43;9.50;;;6.30;;
36663;SDS011;53333;51.976;20.144;2024-02-23T02:36:16;8.98;;;5.57;;
36663;SDS011;53333;51.976;20.144;2024-02-23T02:38:49;8.63;;;5.33;;
36663;SDS011;53333;51.976;20.144;2024-02-23T02:41:22;8.80;;;5.00;;
36663;SDS011;53333;51.976;20.144;2024-02-23T02:44:00;9.43;;;5.32;;
36663;SDS011;53333;51.976;20.144;2024-02-23T02:46:36;7.85;;;5.65;;
36663;SDS011;53333;51.976;20.144;2024-02-23T02:49:10;8.85;;;5.20;;
36663;SDS011;53333;51.976;20.144;2024-02-23T02:51:44;8.45;;;5.60;;
36663;SDS011;53333;51.976;20.144;2024-02-23T02:54:17;9.13;;;5.90;;
36663;SDS011;53333;51.976;20.144;2024-02-23T02:57:00;8.38;;;5.22;;
36663;SDS011;53333;51.976;20.144;2024-02-23T02:59:36;7.32;;;5.28;;
36663;SDS011;53333;51.976;20.144;2024-02-23T03:02:09;6.70;;;4.70;;
36663;SDS011;53333;51.976;20.144;2024-02-23T03:04:47;7.07;;;4.88;;
36663;SDS011;53333;51.976;20.144;2024-02-23T03:07:29;6.90;;;5.30;;
36663;SDS011;53333;51.976;20.144;2024-02-23T03:10:02;7.28;;;5.25;;
36663;SDS011;53333;51.976;20.144;2024-02-23T03:12:35;6.00;;;5.15;;
36663;SDS011;53333;51.976;20.144;2024-02-23T03:15:08;6.07;;;5.10;;
36663;SDS011;53333;51.976;20.144;2024-02-23T03:17:42;8.25;;;5.28;;
36663;SDS011;53333;51.976;20.144;2024-02-23T03:20:16;9.82;;;5.53;;
36663;SDS011;53333;51.976;20.144;2024-02-23T03:22:49;8.40;;;5.38;;
36663;SDS011;53333;51.976;20.144;2024-02-23T03:25:22;7.63;;;5.70;;
36663;SDS011;53333;51.976;20.144;2024-02-23T03:27:58;8.43;;;5.95;;
36663;SDS011;53333;51.976;20.144;2024-02-23T03:30:31;6.63;;;5.38;;
36663;SDS011;53333;51.976;20.144;2024-02-23T03:33:07;8.50;;;5.32;;
36663;SDS011;53333;51.976;20.144;2024-02-23T03:35:42;10.32;;;5.47;;
36663;SDS011;53333;51.976;20.144;2024-02-23T03:38:15;6.15;;;4.53;;
36663;SDS011;53333;51.976;20.144;2024-02-23T03:40:48;8.25;;;5.18;;
36663;SDS011;53333;51.976;20.144;2024-02-23T03:43:21;8.13;;;5.30;;
36663;SDS011;53333;51.976;20.144;2024-02-23T03:45:54;7.05;;;5.30;;
36663;SDS011;53333;51.976;20.144;2024-02-23T03:48:27;8.37;;;5.60;;
36663;SDS011;53333;51.976;20.144;2024-02-23T03:51:13;7.95;;;5.32;;
36663;SDS011;53333;51.976;20.144;2024-02-23T03:53:46;6.75;;;5.43;;
36663;SDS011;53333;51.976;20.144;2024-02-23T03:56:19;7.68;;;4.97;;
36663;SDS011;53333;51.976;20.144;2024-02-23T03:58:52;8.48;;;5.40;;
36663;SDS011;53333;51.976;20.144;2024-02-23T04:01:25;8.03;;;4.63;;
36663;SDS011;53333;51.976;20.144;2024-02-23T04:03:58;11.23;;;5.63;;
36663;SDS011;53333;51.976;20.144;2024-02-23T04:06:33;7.22;;;5.32;;
36663;SDS011;53333;51.976;20.144;2024-02-23T04:09:07;8.38;;;5.68;;
36663;SDS011;53333;51.976;20.144;2024-02-23T04:11:40;7.43;;;5.07;;
36663;SDS011;53333;51.976;20.144;2024-02-23T04:14:13;7.50;;;5.18;;
36663;SDS011;53333;51.976;20.144;2024-02-23T04:16:50;9.60;;;5.47;;
36663;SDS011;53333;51.976;20.144;2024-02-23T04:19:23;7.97;;;5.65;;
36663;SDS011;53333;51.976;20.144;2024-02-23T04:21:57;9.93;;;5.95;;
36663;SDS011;53333;51.976;20.144;2024-02-23T04:24:30;10.23;;;6.22;;
36663;SDS011;53333;51.976;20.144;2024-02-23T04:27:06;7.88;;;6.00;;
36663;SDS011;53333;51.976;20.144;2024-02-23T04:32:12;9.38;;;5.63;;
36663;SDS011;53333;51.976;20.144;2024-02-23T04:37:20;9.52;;;5.80;;
36663;SDS011;53333;51.976;20.144;2024-02-23T04:39:53;8.63;;;5.82;;
36663;SDS011;53333;51.976;20.144;2024-02-23T04:42:26;11.63;;;6.27;;
36663;SDS011;53333;51.976;20.144;2024-02-23T04:44:59;9.03;;;6.43;;
36663;SDS011;53333;51.976;20.144;2024-02-23T04:47:35;11.48;;;6.95;;
36663;SDS011;53333;51.976;20.144;2024-02-23T04:50:08;9.27;;;6.78;;
36663;SDS011;53333;51.976;20.144;2024-02-23T04:52:49;10.25;;;7.10;;
36663;SDS011;53333;51.976;20.144;2024-02-23T04:55:22;10.68;;;6.90;;
36663;SDS011;53333;51.976;20.144;2024-02-23T04:57:55;11.70;;;7.07;;
36663;SDS011;53333;51.976;20.144;2024-02-23T05:00:28;11.68;;;7.32;;
36663;SDS011;53333;51.976;20.144;2024-02-23T05:03:05;10.40;;;6.88;;
36663;SDS011;53333;51.976;20.144;2024-02-23T05:05:43;11.10;;;7.25;;
36663;SDS011;53333;51.976;20.144;2024-02-23T05:08:17;11.17;;;7.13;;
36663;SDS011;53333;51.976;20.144;2024-02-23T05:10:50;12.77;;;7.20;;
36663;SDS011;53333;51.976;20.144;2024-02-23T05:13:23;12.27;;;7.18;;
36663;SDS011;53333;51.976;20.144;2024-02-23T05:15:56;11.93;;;7.40;;
36663;SDS011;53333;51.976;20.144;2024-02-23T05:18:29;11.60;;;7.10;;
36663;SDS011;53333;51.976;20.144;2024-02-23T05:21:02;11.55;;;7.07;;
36663;SDS011;53333;51.976;20.144;2024-02-23T05:26:17;9.70;;;6.68;;
36663;SDS011;53333;51.976;20.144;2024-02-23T05:28:51;11.90;;;7.85;;
36663;SDS011;53333;51.976;20.144;2024-02-23T05:31:43;12.65;;;7.85;;
36663;SDS011;53333;51.976;20.144;2024-02-23T05:34:18;11.60;;;7.70;;
36663;SDS011;53333;51.976;20.144;2024-02-23T05:36:51;10.48;;;7.50;;
36663;SDS011;53333;51.976;20.144;2024-02-23T05:39:26;11.57;;;7.80;;
36663;SDS011;53333;51.976;20.144;2024-02-23T05:41:59;12.98;;;7.07;;
36663;SDS011;53333;51.976;20.144;2024-02-23T05:44:32;12.32;;;8.80;;
36663;SDS011;53333;51.976;20.144;2024-02-23T05:47:05;12.60;;;7.53;;
36663;SDS011;53333;51.976;20.144;2024-02-23T05:49:53;10.45;;;7.57;;
36663;SDS011;53333;51.976;20.144;2024-02-23T05:52:26;11.05;;;7.32;;
36663;SDS011;53333;51.976;20.144;2024-02-23T05:55:00;12.60;;;7.97;;
36663;SDS011;53333;51.976;20.144;2024-02-23T05:57:33;12.55;;;8.38;;
36663;SDS011;53333;51.976;20.144;2024-02-23T06:00:06;12.40;;;8.00;;
36663;SDS011;53333;51.976;20.144;2024-02-23T06:02:43;10.10;;;7.05;;
36663;SDS011;53333;51.976;20.144;2024-02-23T06:05:16;14.60;;;8.30;;
36663;SDS011;53333;51.976;20.144;2024-02-23T06:07:49;14.68;;;7.60;;
36663;SDS011;53333;51.976;20.144;2024-02-23T06:10:23;10.93;;;7.80;;
36663;SDS011;53333;51.976;20.144;2024-02-23T06:12:58;11.25;;;7.65;;
36663;SDS011;53333;51.976;20.144;2024-02-23T06:15:35;11.02;;;8.40;;
36663;SDS011;53333;51.976;20.144;2024-02-23T06:18:08;15.43;;;7.32;;
36663;SDS011;53333;51.976;20.144;2024-02-23T06:20:41;10.18;;;6.75;;
36663;SDS011;53333;51.976;20.144;2024-02-23T06:23:14;11.38;;;7.88;;
36663;SDS011;53333;51.976;20.144;2024-02-23T06:25:48;10.88;;;7.28;;
36663;SDS011;53333;51.976;20.144;2024-02-23T06:28:21;10.65;;;6.65;;
36663;SDS011;53333;51.976;20.144;2024-02-23T06:30:54;11.88;;;8.60;;
36663;SDS011;53333;51.976;20.144;2024-02-23T06:33:27;14.40;;;9.30;;
36663;SDS011;53333;51.976;20.144;2024-02-23T06:36:01;13.00;;;8.38;;
36663;SDS011;53333;51.976;20.144;2024-02-23T06:38:34;12.95;;;8.43;;
36663;SDS011;53333;51.976;20.144;2024-02-23T06:41:09;15.35;;;7.68;;
36663;SDS011;53333;51.976;20.144;2024-02-23T06:43:43;9.05;;;7.10;;
36663;SDS011;53333;51.976;20.144;2024-02-23T06:46:18;11.45;;;7.75;;
36663;SDS011;53333;51.976;20.144;2024-02-23T06:48:51;13.57;;;8.50;;
36663;SDS011;53333;51.976;20.144;2024-02-23T06:51:24;12.23;;;7.90;;
36663;SDS011;53333;51.976;20.144;2024-02-23T06:53:57;12.00;;;7.72;;
36663;SDS011;53333;51.976;20.144;2024-02-23T06:56:32;13.17;;;8.77;;
36663;SDS011;53333;51.976;20.144;2024-02-23T06:59:05;9.90;;;7.97;;
36663;SDS011;53333;51.976;20.144;2024-02-23T07:01:47;12.93;;;8.57;;
36663;SDS011;53333;51.976;20.144;2024-02-23T07:04:20;10.60;;;8.15;;
36663;SDS011;53333;51.976;20.144;2024-02-23T07:06:53;14.70;;;9.43;;
36663;SDS011;53333;51.976;20.144;2024-02-23T07:09:27;12.50;;;8.32;;
36663;SDS011;53333;51.976;20.144;2024-02-23T07:12:01;12.95;;;9.32;;
36663;SDS011;53333;51.976;20.144;2024-02-23T07:14:34;14.70;;;8.70;;
36663;SDS011;53333;51.976;20.144;2024-02-23T07:17:07;12.13;;;8.70;;
36663;SDS011;53333;51.976;20.144;2024-02-23T07:19:44;14.60;;;9.18;;
36663;SDS011;53333;51.976;20.144;2024-02-23T07:22:17;13.35;;;9.30;;
36663;SDS011;53333;51.976;20.144;2024-02-23T07:24:51;15.02;;;8.82;;
36663;SDS011;53333;51.976;20.144;2024-02-23T07:27:25;16.37;;;9.47;;
36663;SDS011;53333;51.976;20.144;2024-02-23T07:29:58;14.68;;;9.02;;
36663;SDS011;53333;51.976;20.144;2024-02-23T07:32:31;11.80;;;8.30;;
36663;SDS011;53333;51.976;20.144;2024-02-23T07:35:04;12.40;;;9.15;;
36663;SDS011;53333;51.976;20.144;2024-02-23T07:37:38;11.68;;;7.93;;
36663;SDS011;53333;51.976;20.144;2024-02-23T07:40:11;12.95;;;8.82;;
36663;SDS011;53333;51.976;20.144;2024-02-23T07:42:47;13.65;;;9.13;;
36663;SDS011;53333;51.976;20.144;2024-02-23T07:45:20;13.85;;;8.85;;
36663;SDS011;53333;51.976;20.144;2024-02-23T07:47:52;12.50;;;8.43;;
36663;SDS011;53333;51.976;20.144;2024-02-23T07:50:25;14.07;;;9.32;;
36663;SDS011;53333;51.976;20.144;2024-02-23T07:52:58;13.23;;;8.77;;
36663;SDS011;53333;51.976;20.144;2024-02-23T07:55:31;12.35;;;8.90;;
36663;SDS011;53333;51.976;20.144;2024-02-23T07:58:07;15.25;;;9.32;;
36663;SDS011;53333;51.976;20.144;2024-02-23T08:00:40;13.55;;;9.13;;
36663;SDS011;53333;51.976;20.144;2024-02-23T08:03:13;13.90;;;9.55;;
36663;SDS011;53333;51.976;20.144;2024-02-23T08:05:49;14.90;;;9.68;;
36663;SDS011;53333;51.976;20.144;2024-02-23T08:08:22;14.75;;;9.65;;
36663;SDS011;53333;51.976;20.144;2024-02-23T08:10:58;15.10;;;9.93;;
36663;SDS011;53333;51.976;20.144;2024-02-23T08:13:32;14.05;;;10.45;;
36663;SDS011;53333;51.976;20.144;2024-02-23T08:16:05;15.35;;;10.73;;
36663;SDS011;53333;51.976;20.144;2024-02-23T08:18:38;16.42;;;10.68;;
36663;SDS011;53333;51.976;20.144;2024-02-23T08:21:11;15.23;;;10.15;;
36663;SDS011;53333;51.976;20.144;2024-02-23T08:23:44;13.53;;;9.77;;
36663;SDS011;53333;51.976;20.144;2024-02-23T08:26:17;15.90;;;10.27;;
36663;SDS011;53333;51.976;20.144;2024-02-23T08:28:52;16.50;;;10.57;;
36663;SDS011;53333;51.976;20.144;2024-02-23T08:31:25;16.67;;;10.85;;
36663;SDS011;53333;51.976;20.144;2024-02-23T08:33:58;14.10;;;10.57;;
36663;SDS011;53333;51.976;20.144;2024-02-23T08:36:31;13.93;;;10.10;;
36663;SDS011;53333;51.976;20.144;2024-02-23T08:39:04;13.03;;;10.00;;
36663;SDS011;53333;51.976;20.144;2024-02-23T08:41:37;14.75;;;10.75;;
36663;SDS011;53333;51.976;20.144;2024-02-23T08:44:11;14.10;;;9.15;;
36663;SDS011;53333;51.976;20.144;2024-02-23T08:46:45;13.35;;;10.13;;
36663;SDS011;53333;51.976;20.144;2024-02-23T08:49:20;15.20;;;10.25;;
36663;SDS011;53333;51.976;20.144;2024-02-23T08:51:53;12.68;;;9.25;;
36663;SDS011;53333;51.976;20.144;2024-02-23T08:54:27;10.88;;;8.98;;
36663;SDS011;53333;51.976;20.144;2024-02-23T08:57:00;13.40;;;9.05;;
36663;SDS011;53333;51.976;20.144;2024-02-23T08:59:39;13.10;;;9.60;;
36663;SDS011;53333;51.976;20.144;2024-02-23T09:02:12;13.15;;;10.32;;
36663;SDS011;53333;51.976;20.144;2024-02-23T09:04:45;16.95;;;11.90;;
36663;SDS011;53333;51.976;20.144;2024-02-23T09:07:18;14.38;;;9.75;;
36663;SDS011;53333;51.976;20.144;2024-02-23T09:09:53;13.50;;;9.68;;
36663;SDS011;53333;51.976;20.144;2024-02-23T09:12:26;12.60;;;9.13;;
36663;SDS011;53333;51.976;20.144;2024-02-23T09:15:01;13.55;;;10.07;;
36663;SDS011;53333;51.976;20.144;2024-02-23T09:17:34;15.25;;;10.43;;
36663;SDS011;53333;51.976;20.144;2024-02-23T09:20:08;15.45;;;10.43;;
36663;SDS011;53333;51.976;20.144;2024-02-23T09:22:42;13.63;;;9.95;;
36663;SDS011;53333;51.976;20.144;2024-02-23T09:25:15;15.18;;;10.55;;
36663;SDS011;53333;51.976;20.144;2024-02-23T09:27:48;15.38;;;9.95;;
36663;SDS011;53333;51.976;20.144;2024-02-23T09:30:22;12.63;;;10.20;;
36663;SDS011;53333;51.976;20.144;2024-02-23T09:32:55;14.73;;;10.20;;
36663;SDS011;53333;51.976;20.144;2024-02-23T09:35:29;15.10;;;10.77;;
36663;SDS011;53333;51.976;20.144;2024-02-23T09:38:02;13.98;;;9.82;;
36663;SDS011;53333;51.976;20.144;2024-02-23T09:40:35;15.35;;;10.05;;
36663;SDS011;53333;51.976;20.144;2024-02-23T09:43:08;13.25;;;9.90;;
36663;SDS011;53333;51.976;20.144;2024-02-23T09:45:48;15.43;;;10.23;;
36663;SDS011;53333;51.976;20.144;2024-02-23T09:48:23;11.32;;;9.30;;
36663;SDS011;53333;51.976;20.144;2024-02-23T09:50:57;13.45;;;11.00;;
36663;SDS011;53333;51.976;20.144;2024-02-23T09:53:33;12.85;;;8.77;;
36663;SDS011;53333;51.976;20.144;2024-02-23T09:56:09;15.80;;;10.80;;
36663;SDS011;53333;51.976;20.144;2024-02-23T09:58:42;15.43;;;9.80;;
36663;SDS011;53333;51.976;20.144;2024-02-23T10:01:19;12.38;;;10.00;;
36663;SDS011;53333;51.976;20.144;2024-02-23T10:04:00;17.13;;;8.88;;
36663;SDS011;53333;51.976;20.144;2024-02-23T10:06:36;16.00;;;10.20;;
36663;SDS011;53333;51.976;20.144;2024-02-23T10:09:09;12.32;;;9.38;;
36663;SDS011;53333;51.976;20.144;2024-02-23T10:11:44;15.05;;;9.68;;
36663;SDS011;53333;51.976;20.144;2024-02-23T10:14:17;16.95;;;10.43;;
36663;SDS011;53333;51.976;20.144;2024-02-23T10:16:51;15.15;;;9.57;;
36663;SDS011;53333;51.976;20.144;2024-02-23T10:19:25;18.77;;;11.23;;
36663;SDS011;53333;51.976;20.144;2024-02-23T10:22:00;13.45;;;10.25;;
36663;SDS011;53333;51.976;20.144;2024-02-23T10:24:33;13.13;;;9.02;;
36663;SDS011;53333;51.976;20.144;2024-02-23T10:27:06;12.83;;;9.73;;
36663;SDS011;53333;51.976;20.144;2024-02-23T10:29:39;14.27;;;9.57;;
36663;SDS011;53333;51.976;20.144;2024-02-23T10:32:14;13.57;;;9.02;;
36663;SDS011;53333;51.976;20.144;2024-02-23T10:34:47;14.82;;;9.80;;
36663;SDS011;53333;51.976;20.144;2024-02-23T10:37:22;13.35;;;9.15;;
36663;SDS011;53333;51.976;20.144;2024-02-23T10:40:03;13.77;;;9.00;;
36663;SDS011;53333;51.976;20.144;2024-02-23T10:43:10;15.65;;;10.30;;
36663;SDS011;53333;51.976;20.144;2024-02-23T10:45:45;18.13;;;12.13;;
36663;SDS011;53333;51.976;20.144;2024-02-23T10:48:20;14.57;;;9.95;;
36663;SDS011;53333;51.976;20.144;2024-02-23T10:50:56;17.73;;;10.27;;
36663;SDS011;53333;51.976;20.144;2024-02-23T10:53:30;14.35;;;10.18;;
36663;SDS011;53333;51.976;20.144;2024-02-23T10:56:04;14.40;;;9.80;;
36663;SDS011;53333;51.976;20.144;2024-02-23T10:58:43;15.20;;;9.50;;
36663;SDS011;53333;51.976;20.144;2024-02-23T11:01:16;15.57;;;9.15;;
36663;SDS011;53333;51.976;20.144;2024-02-23T11:03:59;12.90;;;8.88;;
36663;SDS011;53333;51.976;20.144;2024-02-23T11:06:34;12.40;;;8.23;;
36663;SDS011;53333;51.976;20.144;2024-02-23T11:09:07;13.82;;;8.10;;
36663;SDS011;53333;51.976;20.144;2024-02-23T11:11:50;12.30;;;8.35;;
36663;SDS011;53333;51.976;20.144;2024-02-23T11:14:31;16.42;;;9.10;;
36663;SDS011;53333;51.976;20.144;2024-02-23T11:17:05;13.02;;;9.05;;
36663;SDS011;53333;51.976;20.144;2024-02-23T11:19:39;13.82;;;8.07;;
36663;SDS011;53333;51.976;20.144;2024-02-23T11:22:12;14.25;;;9.68;;
36663;SDS011;53333;51.976;20.144;2024-02-23T11:24:59;16.58;;;10.63;;
36663;SDS011;53333;51.976;20.144;2024-02-23T11:27:34;14.43;;;9.52;;
36663;SDS011;53333;51.976;20.144;2024-02-23T11:32:43;15.27;;;9.77;;
36663;SDS011;53333;51.976;20.144;2024-02-23T11:35:20;13.55;;;9.85;;
36663;SDS011;53333;51.976;20.144;2024-02-23T11:37:58;13.68;;;9.48;;
36663;SDS011;53333;51.976;20.144;2024-02-23T11:40:38;14.52;;;10.13;;
36663;SDS011;53333;51.976;20.144;2024-02-23T11:43:11;12.55;;;10.32;;
36663;SDS011;53333;51.976;20.144;2024-02-23T11:45:46;12.13;;;8.98;;
36663;SDS011;53333;51.976;20.144;2024-02-23T11:48:19;10.95;;;9.15;;
36663;SDS011;53333;51.976;20.144;2024-02-23T11:50:56;11.60;;;8.57;;
36663;SDS011;53333;51.976;20.144;2024-02-23T11:53:29;12.60;;;8.30;;
36663;SDS011;53333;51.976;20.144;2024-02-23T11:56:03;11.80;;;8.48;;
36663;SDS011;53333;51.976;20.144;2024-02-23T11:58:37;12.85;;;9.05;;
36663;SDS011;53333;51.976;20.144;2024-02-23T12:01:10;11.98;;;8.60;;
36663;SDS011;53333;51.976;20.144;2024-02-23T12:03:43;12.30;;;9.48;;
36663;SDS011;53333;51.976;20.144;2024-02-23T12:06:17;14.32;;;9.35;;
36663;SDS011;53333;51.976;20.144;2024-02-23T12:08:50;12.88;;;8.70;;
36663;SDS011;53333;51.976;20.144;2024-02-23T12:11:23;14.85;;;9.77;;
36663;SDS011;53333;51.976;20.144;2024-02-23T12:13:57;15.93;;;9.90;;
36663;SDS011;53333;51.976;20.144;2024-02-23T12:16:31;15.60;;;10.77;;
36663;SDS011;53333;51.976;20.144;2024-02-23T12:19:07;17.38;;;10.30;;
36663;SDS011;53333;51.976;20.144;2024-02-23T12:21:42;14.57;;;10.35;;
36663;SDS011;53333;51.976;20.144;2024-02-23T12:24:17;13.63;;;9.20;;
36663;SDS011;53333;51.976;20.144;2024-02-23T12:26:52;13.88;;;9.90;;
36663;SDS011;53333;51.976;20.144;2024-02-23T12:29:26;14.55;;;10.10;;
36663;SDS011;53333;51.976;20.144;2024-02-23T12:32:03;15.52;;;10.25;;
36663;SDS011;53333;51.976;20.144;2024-02-23T12:34:36;16.55;;;10.30;;
36663;SDS011;53333;51.976;20.144;2024-02-23T12:37:11;14.90;;;10.10;;
36663;SDS011;53333;51.976;20.144;2024-02-23T12:39:47;16.80;;;10.30;;
36663;SDS011;53333;51.976;20.144;2024-02-23T12:42:20;15.00;;;11.65;;
36663;SDS011;53333;51.976;20.144;2024-02-23T12:44:53;14.32;;;9.68;;
36663;SDS011;53333;51.976;20.144;2024-02-23T12:47:26;14.40;;;10.40;;
36663;SDS011;53333;51.976;20.144;2024-02-23T12:50:00;16.83;;;10.98;;
36663;SDS011;53333;51.976;20.144;2024-02-23T12:52:34;15.73;;;10.68;;
36663;SDS011;53333;51.976;20.144;2024-02-23T12:55:07;18.13;;;11.88;;
36663;SDS011;53333;51.976;20.144;2024-02-23T12:57:41;16.05;;;10.70;;
36663;SDS011;53333;51.976;20.144;2024-02-23T13:00:14;17.25;;;11.13;;
36663;SDS011;53333;51.976;20.144;2024-02-23T13:05:20;16.60;;;11.93;;
36663;SDS011;53333;51.976;20.144;2024-02-23T13:07:54;19.65;;;12.75;;
36663;SDS011;53333;51.976;20.144;2024-02-23T13:10:30;15.93;;;11.15;;
36663;SDS011;53333;51.976;20.144;2024-02-23T13:13:21;16.45;;;12.95;;
36663;SDS011;53333;51.976;20.144;2024-02-23T13:15:54;30.23;;;18.38;;
36663;SDS011;53333;51.976;20.144;2024-02-23T13:21:01;22.80;;;15.27;;
36663;SDS011;53333;51.976;20.144;2024-02-23T13:23:36;23.08;;;14.05;;
36663;SDS011;53333;51.976;20.144;2024-02-23T13:26:11;18.25;;;13.75;;
36663;SDS011;53333;51.976;20.144;2024-02-23T13:28:46;18.98;;;13.93;;
36663;SDS011;53333;51.976;20.144;2024-02-23T13:31:19;51.88;;;31.83;;
36663;SDS011;53333;51.976;20.144;2024-02-23T13:36:25;26.65;;;16.95;;
36663;SDS011;53333;51.976;20.144;2024-02-23T13:39:00;19.33;;;13.30;;
36663;SDS011;53333;51.976;20.144;2024-02-23T13:41:33;25.25;;;15.30;;
36663;SDS011;53333;51.976;20.144;2024-02-23T13:44:06;23.45;;;14.93;;
36663;SDS011;53333;51.976;20.144;2024-02-23T13:46:39;25.45;;;16.17;;
36663;SDS011;53333;51.976;20.144;2024-02-23T13:49:12;23.38;;;15.32;;
36663;SDS011;53333;51.976;20.144;2024-02-23T13:51:45;24.80;;;15.32;;
36663;SDS011;53333;51.976;20.144;2024-02-23T13:54:20;23.02;;;15.05;;
36663;SDS011;53333;51.976;20.144;2024-02-23T13:56:53;22.58;;;15.35;;
36663;SDS011;53333;51.976;20.144;2024-02-23T13:59:26;22.10;;;14.25;;
36663;SDS011;53333;51.976;20.144;2024-02-23T14:01:59;23.02;;;14.88;;
36663;SDS011;53333;51.976;20.144;2024-02-23T14:04:32;20.42;;;14.05;;
36663;SDS011;53333;51.976;20.144;2024-02-23T14:07:06;22.77;;;14.48;;
36663;SDS011;53333;51.976;20.144;2024-02-23T14:09:40;20.52;;;13.15;;
36663;SDS011;53333;51.976;20.144;2024-02-23T14:12:13;20.33;;;13.02;;
36663;SDS011;53333;51.976;20.144;2024-02-23T14:14:47;24.38;;;15.00;;
36663;SDS011;53333;51.976;20.144;2024-02-23T14:17:20;26.63;;;17.25;;
36663;SDS011;53333;51.976;20.144;2024-02-23T14:19:53;22.70;;;15.52;;
36663;SDS011;53333;51.976;20.144;2024-02-23T14:22:26;26.65;;;17.00;;
36663;SDS011;53333;51.976;20.144;2024-02-23T14:25:01;22.52;;;16.08;;
36663;SDS011;53333;51.976;20.144;2024-02-23T14:27:34;26.17;;;15.57;;
36663;SDS011;53333;51.976;20.144;2024-02-23T14:30:07;24.88;;;16.25;;
36663;SDS011;53333;51.976;20.144;2024-02-23T14:32:41;23.60;;;16.80;;
36663;SDS011;53333;51.976;20.144;2024-02-23T14:35:14;27.25;;;17.20;;
36663;SDS011;53333;51.976;20.144;2024-02-23T14:37:47;29.13;;;17.13;;
36663;SDS011;53333;51.976;20.144;2024-02-23T14:40:22;31.85;;;19.02;;
36663;SDS011;53333;51.976;20.144;2024-02-23T14:42:55;32.50;;;19.20;;
36663;SDS011;53333;51.976;20.144;2024-02-23T14:45:28;32.50;;;20.45;;
36663;SDS011;53333;51.976;20.144;2024-02-23T14:48:01;28.65;;;19.00;;
36663;SDS011;53333;51.976;20.144;2024-02-23T14:50:34;28.40;;;17.58;;
36663;SDS011;53333;51.976;20.144;2024-02-23T14:53:07;25.38;;;17.58;;
36663;SDS011;53333;51.976;20.144;2024-02-23T14:58:15;27.90;;;17.58;;
36663;SDS011;53333;51.976;20.144;2024-02-23T15:00:48;30.98;;;19.63;;
36663;SDS011;53333;51.976;20.144;2024-02-23T15:03:21;83.60;;;48.28;;
36663;SDS011;53333;51.976;20.144;2024-02-23T15:05:54;26.42;;;17.70;;
36663;SDS011;53333;51.976;20.144;2024-02-23T15:08:27;32.22;;;19.35;;
36663;SDS011;53333;51.976;20.144;2024-02-23T15:11:02;28.70;;;19.02;;
36663;SDS011;53333;51.976;20.144;2024-02-23T15:13:36;34.95;;;21.00;;
36663;SDS011;53333;51.976;20.144;2024-02-23T15:16:09;33.17;;;19.88;;
36663;SDS011;53333;51.976;20.144;2024-02-23T15:18:42;36.27;;;22.17;;
36663;SDS011;53333;51.976;20.144;2024-02-23T15:21:16;30.70;;;20.05;;
36663;SDS011;53333;51.976;20.144;2024-02-23T15:23:49;28.50;;;20.00;;
36663;SDS011;53333;51.976;20.144;2024-02-23T15:26:23;32.22;;;20.48;;